sensor_id;sensor_type;location;lat;lon;timestamp;P1;durP1;ratioP1;P2;durP2;ratioP2
22034;SDS011;11181;51.002;4.356;2023-04-01T00:00:51;1.93;;;1.10;;
22034;SDS011;11181;51.002;4.356;2023-04-01T00:03:21;2.20;;;0.80;;
22034;SDS011;11181;51.002;4.356;2023-04-01T00:05:49;3.10;;;1.20;;
22034;SDS011;11181;51.002;4.356;2023-04-01T00:08:16;5.77;;;1.07;;
22034;SDS011;11181;51.002;4.356;2023-04-01T00:10:43;1.83;;;1.10;;
22034;SDS011;11181;51.002;4.356;2023-04-01T00:13:10;5.33;;;1.03;;
22034;SDS011;11181;51.002;4.356;2023-04-01T00:15:38;3.33;;;0.80;;
22034;SDS011;11181;51.002;4.356;2023-04-01T00:18:04;3.33;;;1.20;;
22034;SDS011;11181;51.002;4.356;2023-04-01T00:20:33;3.90;;;1.47;;
22034;SDS011;11181;51.002;4.356;2023-04-01T00:23:00;3.83;;;1.10;;
22034;SDS011;11181;51.002;4.356;2023-04-01T00:25:27;4.00;;;1.60;;
22034;SDS011;11181;51.002;4.356;2023-04-01T00:27:54;5.87;;;1.60;;
22034;SDS011;11181;51.002;4.356;2023-04-01T00:30:21;2.10;;;1.00;;
22034;SDS011;11181;51.002;4.356;2023-04-01T00:32:51;6.90;;;1.70;;
22034;SDS011;11181;51.002;4.356;2023-04-01T00:35:18;4.33;;;1.70;;
22034;SDS011;11181;51.002;4.356;2023-04-01T00:37:46;4.13;;;1.53;;
22034;SDS011;11181;51.002;4.356;2023-04-01T00:40:21;2.73;;;1.40;;
22034;SDS011;11181;51.002;4.356;2023-04-01T00:42:52;5.33;;;1.90;;
22034;SDS011;11181;51.002;4.356;2023-04-01T00:45:26;3.00;;;1.50;;
22034;SDS011;11181;51.002;4.356;2023-04-01T00:47:56;4.23;;;1.40;;
22034;SDS011;11181;51.002;4.356;2023-04-01T00:50:25;3.90;;;1.43;;
22034;SDS011;11181;51.002;4.356;2023-04-01T00:52:56;3.30;;;1.83;;
22034;SDS011;11181;51.002;4.356;2023-04-01T00:55:25;4.27;;;1.63;;
22034;SDS011;11181;51.002;4.356;2023-04-01T00:57:53;7.43;;;1.83;;
22034;SDS011;11181;51.002;4.356;2023-04-01T01:00:23;4.33;;;2.10;;
22034;SDS011;11181;51.002;4.356;2023-04-01T01:02:51;6.10;;;2.50;;
22034;SDS011;11181;51.002;4.356;2023-04-01T01:05:19;3.50;;;1.83;;
22034;SDS011;11181;51.002;4.356;2023-04-01T01:07:59;4.60;;;1.97;;
22034;SDS011;11181;51.002;4.356;2023-04-01T01:10:29;3.50;;;2.23;;
22034;SDS011;11181;51.002;4.356;2023-04-01T01:13:00;6.60;;;2.67;;
22034;SDS011;11181;51.002;4.356;2023-04-01T01:15:35;5.37;;;2.73;;
22034;SDS011;11181;51.002;4.356;2023-04-01T01:18:06;5.23;;;3.23;;
22034;SDS011;11181;51.002;4.356;2023-04-01T01:20:48;4.67;;;2.83;;
22034;SDS011;11181;51.002;4.356;2023-04-01T01:32:38;6.27;;;4.03;;
22034;SDS011;11181;51.002;4.356;2023-04-01T01:35:23;5.87;;;3.43;;
22034;SDS011;11181;51.002;4.356;2023-04-01T01:37:55;4.63;;;3.90;;
22034;SDS011;11181;51.002;4.356;2023-04-01T01:40:24;6.60;;;3.60;;
22034;SDS011;11181;51.002;4.356;2023-04-01T01:42:54;5.03;;;3.60;;
22034;SDS011;11181;51.002;4.356;2023-04-01T01:45:24;5.80;;;3.73;;
22034;SDS011;11181;51.002;4.356;2023-04-01T01:47:53;8.37;;;3.73;;
22034;SDS011;11181;51.002;4.356;2023-04-01T01:50:24;6.37;;;3.50;;
22034;SDS011;11181;51.002;4.356;2023-04-01T01:52:59;5.37;;;2.90;;
22034;SDS011;11181;51.002;4.356;2023-04-01T01:55:28;7.57;;;3.77;;
22034;SDS011;11181;51.002;4.356;2023-04-01T01:57:57;5.77;;;3.10;;
22034;SDS011;11181;51.002;4.356;2023-04-01T02:00:27;4.80;;;3.13;;
22034;SDS011;11181;51.002;4.356;2023-04-01T02:02:54;8.33;;;3.07;;
22034;SDS011;11181;51.002;4.356;2023-04-01T02:05:25;7.20;;;3.77;;
22034;SDS011;11181;51.002;4.356;2023-04-01T02:07:58;6.73;;;3.13;;
22034;SDS011;11181;51.002;4.356;2023-04-01T02:10:28;5.93;;;3.67;;
22034;SDS011;11181;51.002;4.356;2023-04-01T02:13:00;10.07;;;3.47;;
22034;SDS011;11181;51.002;4.356;2023-04-01T02:15:31;4.43;;;2.73;;
22034;SDS011;11181;51.002;4.356;2023-04-01T02:18:03;7.30;;;3.37;;
22034;SDS011;11181;51.002;4.356;2023-04-01T02:20:33;8.47;;;3.77;;
22034;SDS011;11181;51.002;4.356;2023-04-01T02:23:03;5.77;;;3.57;;
22034;SDS011;11181;51.002;4.356;2023-04-01T02:25:33;10.90;;;3.20;;
22034;SDS011;11181;51.002;4.356;2023-04-01T02:28:02;6.00;;;3.23;;
22034;SDS011;11181;51.002;4.356;2023-04-01T02:30:33;6.90;;;2.97;;
22034;SDS011;11181;51.002;4.356;2023-04-01T02:33:03;9.60;;;3.70;;
22034;SDS011;11181;51.002;4.356;2023-04-01T02:35:33;7.97;;;3.23;;
22034;SDS011;11181;51.002;4.356;2023-04-01T02:38:02;8.77;;;3.20;;
22034;SDS011;11181;51.002;4.356;2023-04-01T02:40:40;9.53;;;3.50;;
22034;SDS011;11181;51.002;4.356;2023-04-01T02:43:09;8.27;;;3.03;;
22034;SDS011;11181;51.002;4.356;2023-04-01T02:45:36;5.47;;;3.00;;
22034;SDS011;11181;51.002;4.356;2023-04-01T02:48:03;6.20;;;2.97;;
22034;SDS011;11181;51.002;4.356;2023-04-01T02:50:31;5.03;;;2.70;;
22034;SDS011;11181;51.002;4.356;2023-04-01T02:52:59;11.13;;;2.60;;
22034;SDS011;11181;51.002;4.356;2023-04-01T02:55:28;6.10;;;2.60;;
22034;SDS011;11181;51.002;4.356;2023-04-01T02:57:55;6.07;;;2.60;;
22034;SDS011;11181;51.002;4.356;2023-04-01T03:00:22;4.13;;;2.70;;
22034;SDS011;11181;51.002;4.356;2023-04-01T03:02:49;5.17;;;1.73;;
22034;SDS011;11181;51.002;4.356;2023-04-01T03:05:16;2.77;;;2.07;;
22034;SDS011;11181;51.002;4.356;2023-04-01T03:07:43;6.53;;;2.10;;
22034;SDS011;11181;51.002;4.356;2023-04-01T03:10:11;8.10;;;3.23;;
22034;SDS011;11181;51.002;4.356;2023-04-01T03:12:38;6.97;;;2.53;;
22034;SDS011;11181;51.002;4.356;2023-04-01T03:15:06;7.43;;;2.70;;
22034;SDS011;11181;51.002;4.356;2023-04-01T03:17:33;7.80;;;2.83;;
22034;SDS011;11181;51.002;4.356;2023-04-01T03:20:00;6.10;;;3.00;;
22034;SDS011;11181;51.002;4.356;2023-04-01T03:22:29;5.33;;;2.40;;
22034;SDS011;11181;51.002;4.356;2023-04-01T03:24:56;5.93;;;2.83;;
22034;SDS011;11181;51.002;4.356;2023-04-01T03:27:25;5.73;;;3.20;;
22034;SDS011;11181;51.002;4.356;2023-04-01T03:29:51;7.00;;;3.50;;
22034;SDS011;11181;51.002;4.356;2023-04-01T03:32:18;6.17;;;3.63;;
22034;SDS011;11181;51.002;4.356;2023-04-01T03:34:45;6.60;;;3.50;;
22034;SDS011;11181;51.002;4.356;2023-04-01T03:37:12;7.33;;;3.93;;
22034;SDS011;11181;51.002;4.356;2023-04-01T03:39:39;6.70;;;3.50;;
22034;SDS011;11181;51.002;4.356;2023-04-01T03:42:06;9.20;;;4.17;;
22034;SDS011;11181;51.002;4.356;2023-04-01T03:44:35;7.67;;;4.10;;
22034;SDS011;11181;51.002;4.356;2023-04-01T03:47:02;6.57;;;3.20;;
22034;SDS011;11181;51.002;4.356;2023-04-01T03:49:29;8.93;;;4.30;;
22034;SDS011;11181;51.002;4.356;2023-04-01T03:51:57;6.17;;;3.40;;
22034;SDS011;11181;51.002;4.356;2023-04-01T03:54:24;7.20;;;3.93;;
22034;SDS011;11181;51.002;4.356;2023-04-01T03:56:51;6.77;;;3.53;;
22034;SDS011;11181;51.002;4.356;2023-04-01T03:59:20;12.30;;;4.33;;
22034;SDS011;11181;51.002;4.356;2023-04-01T04:01:48;6.70;;;3.97;;
22034;SDS011;11181;51.002;4.356;2023-04-01T04:04:15;6.60;;;3.77;;
22034;SDS011;11181;51.002;4.356;2023-04-01T04:06:42;5.93;;;3.90;;
22034;SDS011;11181;51.002;4.356;2023-04-01T04:09:09;7.70;;;4.37;;
22034;SDS011;11181;51.002;4.356;2023-04-01T04:11:36;6.43;;;3.40;;
22034;SDS011;11181;51.002;4.356;2023-04-01T04:14:03;7.13;;;4.17;;
22034;SDS011;11181;51.002;4.356;2023-04-01T04:16:30;8.90;;;3.63;;
22034;SDS011;11181;51.002;4.356;2023-04-01T04:18:58;6.23;;;2.97;;
22034;SDS011;11181;51.002;4.356;2023-04-01T04:21:25;6.73;;;3.03;;
22034;SDS011;11181;51.002;4.356;2023-04-01T04:23:52;12.03;;;3.37;;
22034;SDS011;11181;51.002;4.356;2023-04-01T04:26:19;8.63;;;3.90;;
22034;SDS011;11181;51.002;4.356;2023-04-01T04:28:46;5.07;;;3.33;;
22034;SDS011;11181;51.002;4.356;2023-04-01T04:31:17;4.87;;;3.20;;
22034;SDS011;11181;51.002;4.356;2023-04-01T04:33:45;6.03;;;3.60;;
22034;SDS011;11181;51.002;4.356;2023-04-01T04:36:14;6.37;;;2.93;;
22034;SDS011;11181;51.002;4.356;2023-04-01T04:38:41;5.67;;;3.57;;
22034;SDS011;11181;51.002;4.356;2023-04-01T04:41:08;4.17;;;3.13;;
22034;SDS011;11181;51.002;4.356;2023-04-01T04:43:36;7.03;;;3.07;;
22034;SDS011;11181;51.002;4.356;2023-04-01T04:46:04;5.40;;;3.40;;
22034;SDS011;11181;51.002;4.356;2023-04-01T04:48:32;4.87;;;2.80;;
22034;SDS011;11181;51.002;4.356;2023-04-01T04:50:59;5.27;;;3.23;;
22034;SDS011;11181;51.002;4.356;2023-04-01T04:53:27;6.07;;;3.27;;
22034;SDS011;11181;51.002;4.356;2023-04-01T04:55:54;7.87;;;3.63;;
22034;SDS011;11181;51.002;4.356;2023-04-01T04:58:21;3.90;;;3.10;;
22034;SDS011;11181;51.002;4.356;2023-04-01T05:00:48;3.47;;;2.77;;
22034;SDS011;11181;51.002;4.356;2023-04-01T05:03:15;4.63;;;2.80;;
22034;SDS011;11181;51.002;4.356;2023-04-01T05:05:47;4.67;;;3.60;;
22034;SDS011;11181;51.002;4.356;2023-04-01T05:08:16;3.87;;;2.87;;
22034;SDS011;11181;51.002;4.356;2023-04-01T05:10:44;4.93;;;2.90;;
22034;SDS011;11181;51.002;4.356;2023-04-01T05:13:12;5.83;;;3.30;;
22034;SDS011;11181;51.002;4.356;2023-04-01T05:15:39;4.13;;;2.50;;
22034;SDS011;11181;51.002;4.356;2023-04-01T05:18:05;3.67;;;2.93;;
22034;SDS011;11181;51.002;4.356;2023-04-01T05:20:32;3.30;;;2.40;;
22034;SDS011;11181;51.002;4.356;2023-04-01T05:22:59;3.63;;;2.47;;
22034;SDS011;11181;51.002;4.356;2023-04-01T05:25:26;2.77;;;2.10;;
22034;SDS011;11181;51.002;4.356;2023-04-01T05:27:55;6.00;;;3.13;;
22034;SDS011;11181;51.002;4.356;2023-04-01T05:30:22;3.73;;;3.10;;
22034;SDS011;11181;51.002;4.356;2023-04-01T05:32:49;3.73;;;2.50;;
22034;SDS011;11181;51.002;4.356;2023-04-01T05:35:16;5.23;;;2.30;;
22034;SDS011;11181;51.002;4.356;2023-04-01T05:37:43;4.10;;;2.93;;
22034;SDS011;11181;51.002;4.356;2023-04-01T05:40:10;8.80;;;2.70;;
22034;SDS011;11181;51.002;4.356;2023-04-01T05:42:37;7.23;;;3.30;;
22034;SDS011;11181;51.002;4.356;2023-04-01T05:45:06;6.63;;;2.83;;
22034;SDS011;11181;51.002;4.356;2023-04-01T05:47:34;3.47;;;2.73;;
22034;SDS011;11181;51.002;4.356;2023-04-01T05:50:00;5.17;;;2.80;;
22034;SDS011;11181;51.002;4.356;2023-04-01T05:52:27;3.67;;;2.90;;
22034;SDS011;11181;51.002;4.356;2023-04-01T05:54:54;4.07;;;2.83;;
22034;SDS011;11181;51.002;4.356;2023-04-01T05:57:21;5.07;;;3.60;;
22034;SDS011;11181;51.002;4.356;2023-04-01T05:59:48;6.30;;;3.60;;
22034;SDS011;11181;51.002;4.356;2023-04-01T06:02:17;5.83;;;3.40;;
22034;SDS011;11181;51.002;4.356;2023-04-01T06:04:44;5.47;;;3.30;;
22034;SDS011;11181;51.002;4.356;2023-04-01T06:07:12;3.87;;;3.00;;
22034;SDS011;11181;51.002;4.356;2023-04-01T06:09:39;5.20;;;2.80;;
22034;SDS011;11181;51.002;4.356;2023-04-01T06:12:12;2.63;;;2.27;;
22034;SDS011;11181;51.002;4.356;2023-04-01T06:14:51;2.97;;;2.10;;
22034;SDS011;11181;51.002;4.356;2023-04-01T06:17:35;3.70;;;1.83;;
22034;SDS011;11181;51.002;4.356;2023-04-01T06:20:15;2.40;;;1.90;;
22034;SDS011;11181;51.002;4.356;2023-04-01T06:23:01;3.13;;;2.40;;
22034;SDS011;11181;51.002;4.356;2023-04-01T06:25:56;5.00;;;2.80;;
22034;SDS011;11181;51.002;4.356;2023-04-01T06:31:22;3.07;;;2.17;;
22034;SDS011;11181;51.002;4.356;2023-04-01T06:34:08;4.73;;;2.30;;
22034;SDS011;11181;51.002;4.356;2023-04-01T06:36:53;4.37;;;2.20;;
22034;SDS011;11181;51.002;4.356;2023-04-01T06:39:39;2.80;;;2.27;;
22034;SDS011;11181;51.002;4.356;2023-04-01T06:42:22;3.40;;;1.97;;
22034;SDS011;11181;51.002;4.356;2023-04-01T06:45:07;3.43;;;1.87;;
22034;SDS011;11181;51.002;4.356;2023-04-01T06:47:48;2.20;;;1.20;;
22034;SDS011;11181;51.002;4.356;2023-04-01T06:50:26;2.20;;;1.03;;
22034;SDS011;11181;51.002;4.356;2023-04-01T06:52:59;3.23;;;1.40;;
22034;SDS011;11181;51.002;4.356;2023-04-01T06:55:34;3.50;;;1.67;;
22034;SDS011;11181;51.002;4.356;2023-04-01T06:58:09;1.97;;;1.53;;
22034;SDS011;11181;51.002;4.356;2023-04-01T07:00:44;1.50;;;1.10;;
22034;SDS011;11181;51.002;4.356;2023-04-01T07:03:16;1.20;;;1.10;;
22034;SDS011;11181;51.002;4.356;2023-04-01T07:05:49;1.97;;;1.10;;
22034;SDS011;11181;51.002;4.356;2023-04-01T07:08:17;1.87;;;0.93;;
22034;SDS011;11181;51.002;4.356;2023-04-01T07:10:50;1.50;;;1.37;;
22034;SDS011;11181;51.002;4.356;2023-04-01T07:13:22;2.33;;;1.70;;
22034;SDS011;11181;51.002;4.356;2023-04-01T07:15:58;3.10;;;1.83;;
22034;SDS011;11181;51.002;4.356;2023-04-01T07:18:32;2.40;;;1.53;;
22034;SDS011;11181;51.002;4.356;2023-04-01T07:21:07;2.17;;;1.50;;
22034;SDS011;11181;51.002;4.356;2023-04-01T07:23:42;5.00;;;2.10;;
22034;SDS011;11181;51.002;4.356;2023-04-01T07:26:14;3.03;;;1.30;;
22034;SDS011;11181;51.002;4.356;2023-04-01T07:28:45;2.77;;;1.10;;
22034;SDS011;11181;51.002;4.356;2023-04-01T07:31:18;0.90;;;0.90;;
22034;SDS011;11181;51.002;4.356;2023-04-01T07:33:55;1.00;;;0.90;;
22034;SDS011;11181;51.002;4.356;2023-04-01T07:36:33;1.20;;;1.10;;
22034;SDS011;11181;51.002;4.356;2023-04-01T07:39:08;1.33;;;0.90;;
22034;SDS011;11181;51.002;4.356;2023-04-01T07:41:44;2.83;;;1.00;;
22034;SDS011;11181;51.002;4.356;2023-04-01T07:44:19;3.60;;;1.03;;
22034;SDS011;11181;51.002;4.356;2023-04-01T07:46:58;1.37;;;1.27;;
22034;SDS011;11181;51.002;4.356;2023-04-01T07:49:45;1.07;;;0.93;;
22034;SDS011;11181;51.002;4.356;2023-04-01T07:52:29;0.80;;;0.80;;
22034;SDS011;11181;51.002;4.356;2023-04-01T07:55:04;1.10;;;0.80;;
22034;SDS011;11181;51.002;4.356;2023-04-01T07:57:38;0.73;;;0.73;;
22034;SDS011;11181;51.002;4.356;2023-04-01T08:00:11;0.87;;;0.87;;
22034;SDS011;11181;51.002;4.356;2023-04-01T08:02:48;1.17;;;0.97;;
22034;SDS011;11181;51.002;4.356;2023-04-01T08:05:40;2.67;;;1.00;;
22034;SDS011;11181;51.002;4.356;2023-04-01T08:08:19;1.10;;;0.90;;
22034;SDS011;11181;51.002;4.356;2023-04-01T08:10:55;2.77;;;1.30;;
22034;SDS011;11181;51.002;4.356;2023-04-01T08:13:28;1.93;;;0.90;;
22034;SDS011;11181;51.002;4.356;2023-04-01T08:16:04;0.73;;;0.70;;
22034;SDS011;11181;51.002;4.356;2023-04-01T08:18:38;1.47;;;1.00;;
22034;SDS011;11181;51.002;4.356;2023-04-01T08:21:12;1.00;;;0.90;;
22034;SDS011;11181;51.002;4.356;2023-04-01T08:23:46;1.93;;;0.90;;
22034;SDS011;11181;51.002;4.356;2023-04-01T08:26:16;1.70;;;0.80;;
22034;SDS011;11181;51.002;4.356;2023-04-01T08:28:54;1.10;;;0.90;;
22034;SDS011;11181;51.002;4.356;2023-04-01T08:31:29;1.57;;;0.90;;
22034;SDS011;11181;51.002;4.356;2023-04-01T08:33:59;1.23;;;1.00;;
22034;SDS011;11181;51.002;4.356;2023-04-01T08:36:31;1.00;;;0.70;;
22034;SDS011;11181;51.002;4.356;2023-04-01T08:39:03;0.90;;;0.90;;
22034;SDS011;11181;51.002;4.356;2023-04-01T08:41:41;0.70;;;0.70;;
22034;SDS011;11181;51.002;4.356;2023-04-01T08:44:36;1.40;;;1.10;;
22034;SDS011;11181;51.002;4.356;2023-04-01T08:50:49;2.17;;;0.80;;
22034;SDS011;11181;51.002;4.356;2023-04-01T08:53:49;1.20;;;1.03;;
22034;SDS011;11181;51.002;4.356;2023-04-01T08:56:33;0.90;;;0.90;;
22034;SDS011;11181;51.002;4.356;2023-04-01T08:59:08;1.63;;;0.73;;
22034;SDS011;11181;51.002;4.356;2023-04-01T09:01:54;1.33;;;1.03;;
22034;SDS011;11181;51.002;4.356;2023-04-01T09:04:42;1.10;;;1.00;;
22034;SDS011;11181;51.002;4.356;2023-04-01T09:07:30;2.00;;;1.03;;
22034;SDS011;11181;51.002;4.356;2023-04-01T09:10:07;1.97;;;1.10;;
22034;SDS011;11181;51.002;4.356;2023-04-01T09:13:07;1.40;;;1.30;;
22034;SDS011;11181;51.002;4.356;2023-04-01T09:16:11;2.50;;;1.50;;
22034;SDS011;11181;51.002;4.356;2023-04-01T09:18:54;1.73;;;1.63;;
22034;SDS011;11181;51.002;4.356;2023-04-01T09:21:41;2.20;;;1.93;;
22034;SDS011;11181;51.002;4.356;2023-04-01T09:27:41;3.00;;;2.20;;
22034;SDS011;11181;51.002;4.356;2023-04-01T09:30:24;5.47;;;2.70;;
22034;SDS011;11181;51.002;4.356;2023-04-01T09:33:07;5.33;;;3.87;;
22034;SDS011;11181;51.002;4.356;2023-04-01T09:36:02;3.77;;;3.27;;
22034;SDS011;11181;51.002;4.356;2023-04-01T09:38:36;3.33;;;3.03;;
22034;SDS011;11181;51.002;4.356;2023-04-01T09:41:15;3.73;;;3.10;;
22034;SDS011;11181;51.002;4.356;2023-04-01T09:43:58;4.10;;;3.23;;
22034;SDS011;11181;51.002;4.356;2023-04-01T09:46:45;4.57;;;3.00;;
22034;SDS011;11181;51.002;4.356;2023-04-01T09:52:18;6.03;;;3.23;;
22034;SDS011;11181;51.002;4.356;2023-04-01T09:54:58;3.63;;;2.87;;
22034;SDS011;11181;51.002;4.356;2023-04-01T10:00:49;7.73;;;3.00;;
22034;SDS011;11181;51.002;4.356;2023-04-01T10:03:51;3.20;;;2.87;;
22034;SDS011;11181;51.002;4.356;2023-04-01T10:06:50;3.13;;;2.57;;
22034;SDS011;11181;51.002;4.356;2023-04-01T10:12:38;3.00;;;2.40;;
22034;SDS011;11181;51.002;4.356;2023-04-01T10:15:33;2.80;;;2.17;;
22034;SDS011;11181;51.002;4.356;2023-04-01T10:21:56;2.40;;;2.20;;
22034;SDS011;11181;51.002;4.356;2023-04-01T10:24:58;6.83;;;2.60;;
22034;SDS011;11181;51.002;4.356;2023-04-01T10:36:55;3.17;;;1.27;;
22034;SDS011;11181;51.002;4.356;2023-04-01T10:39:34;1.53;;;1.10;;
22034;SDS011;11181;51.002;4.356;2023-04-01T10:42:25;2.53;;;1.23;;
22034;SDS011;11181;51.002;4.356;2023-04-01T10:45:31;2.23;;;1.13;;
22034;SDS011;11181;51.002;4.356;2023-04-01T10:51:25;2.00;;;1.30;;
22034;SDS011;11181;51.002;4.356;2023-04-01T10:54:20;1.13;;;0.90;;
22034;SDS011;11181;51.002;4.356;2023-04-01T10:57:16;1.00;;;0.87;;
22034;SDS011;11181;51.002;4.356;2023-04-01T11:03:22;1.60;;;0.97;;
22034;SDS011;11181;51.002;4.356;2023-04-01T11:09:23;2.30;;;1.60;;
22034;SDS011;11181;51.002;4.356;2023-04-01T11:12:19;2.00;;;1.47;;
22034;SDS011;11181;51.002;4.356;2023-04-01T11:15:20;1.00;;;0.97;;
22034;SDS011;11181;51.002;4.356;2023-04-01T11:21:22;1.67;;;1.10;;
22034;SDS011;11181;51.002;4.356;2023-04-01T11:24:23;3.00;;;1.60;;
22034;SDS011;11181;51.002;4.356;2023-04-01T11:27:15;3.33;;;1.67;;
22034;SDS011;11181;51.002;4.356;2023-04-01T11:30:07;1.87;;;1.20;;
22034;SDS011;11181;51.002;4.356;2023-04-01T11:32:53;1.40;;;1.03;;
22034;SDS011;11181;51.002;4.356;2023-04-01T11:35:26;1.77;;;0.90;;
22034;SDS011;11181;51.002;4.356;2023-04-01T11:38:17;1.87;;;1.40;;
22034;SDS011;11181;51.002;4.356;2023-04-01T11:40:56;1.20;;;1.00;;
22034;SDS011;11181;51.002;4.356;2023-04-01T11:43:32;1.30;;;1.10;;
22034;SDS011;11181;51.002;4.356;2023-04-01T11:46:06;1.70;;;1.30;;
22034;SDS011;11181;51.002;4.356;2023-04-01T11:48:38;1.97;;;1.20;;
22034;SDS011;11181;51.002;4.356;2023-04-01T11:51:27;1.37;;;1.27;;
22034;SDS011;11181;51.002;4.356;2023-04-01T11:54:04;1.50;;;1.30;;
22034;SDS011;11181;51.002;4.356;2023-04-01T11:56:49;2.23;;;1.10;;
22034;SDS011;11181;51.002;4.356;2023-04-01T11:59:31;1.33;;;1.20;;
22034;SDS011;11181;51.002;4.356;2023-04-01T12:02:20;1.10;;;1.00;;
22034;SDS011;11181;51.002;4.356;2023-04-01T12:05:01;2.67;;;1.33;;
22034;SDS011;11181;51.002;4.356;2023-04-01T12:07:51;1.20;;;1.13;;
22034;SDS011;11181;51.002;4.356;2023-04-01T12:10:29;1.73;;;1.30;;
22034;SDS011;11181;51.002;4.356;2023-04-01T12:13:07;2.13;;;1.73;;
22034;SDS011;11181;51.002;4.356;2023-04-01T12:15:48;2.53;;;1.60;;
22034;SDS011;11181;51.002;4.356;2023-04-01T12:18:23;1.20;;;1.10;;
22034;SDS011;11181;51.002;4.356;2023-04-01T12:21:00;1.83;;;1.33;;
22034;SDS011;11181;51.002;4.356;2023-04-01T12:23:45;1.57;;;1.47;;
22034;SDS011;11181;51.002;4.356;2023-04-01T12:26:38;3.63;;;1.70;;
22034;SDS011;11181;51.002;4.356;2023-04-01T12:29:25;1.93;;;1.40;;
22034;SDS011;11181;51.002;4.356;2023-04-01T12:32:20;2.60;;;1.67;;
22034;SDS011;11181;51.002;4.356;2023-04-01T12:35:03;0.87;;;0.87;;
22034;SDS011;11181;51.002;4.356;2023-04-01T12:37:45;2.43;;;1.43;;
22034;SDS011;11181;51.002;4.356;2023-04-01T12:40:25;1.47;;;1.20;;
22034;SDS011;11181;51.002;4.356;2023-04-01T12:46:12;1.27;;;1.17;;
22034;SDS011;11181;51.002;4.356;2023-04-01T12:48:57;3.90;;;1.20;;
22034;SDS011;11181;51.002;4.356;2023-04-01T12:57:53;2.57;;;1.63;;
22034;SDS011;11181;51.002;4.356;2023-04-01T13:00:46;1.37;;;1.27;;
22034;SDS011;11181;51.002;4.356;2023-04-01T13:03:31;2.13;;;1.50;;
22034;SDS011;11181;51.002;4.356;2023-04-01T13:06:20;2.83;;;0.90;;
22034;SDS011;11181;51.002;4.356;2023-04-01T13:08:59;1.90;;;0.87;;
22034;SDS011;11181;51.002;4.356;2023-04-01T13:11:44;1.17;;;0.80;;
22034;SDS011;11181;51.002;4.356;2023-04-01T13:14:26;1.63;;;1.17;;
22034;SDS011;11181;51.002;4.356;2023-04-01T13:17:17;1.10;;;0.80;;
22034;SDS011;11181;51.002;4.356;2023-04-01T13:19:51;1.37;;;1.03;;
22034;SDS011;11181;51.002;4.356;2023-04-01T13:22:25;0.83;;;0.83;;
22034;SDS011;11181;51.002;4.356;2023-04-01T13:24:59;1.30;;;1.20;;
22034;SDS011;11181;51.002;4.356;2023-04-01T13:27:33;1.10;;;1.00;;
22034;SDS011;11181;51.002;4.356;2023-04-01T13:30:12;5.10;;;1.43;;
22034;SDS011;11181;51.002;4.356;2023-04-01T13:32:53;1.37;;;1.00;;
22034;SDS011;11181;51.002;4.356;2023-04-01T13:35:33;1.50;;;1.27;;
22034;SDS011;11181;51.002;4.356;2023-04-01T13:41:17;3.57;;;2.93;;
22034;SDS011;11181;51.002;4.356;2023-04-01T13:43:57;2.90;;;2.70;;
22034;SDS011;11181;51.002;4.356;2023-04-01T13:46:34;4.20;;;3.40;;
22034;SDS011;11181;51.002;4.356;2023-04-01T13:49:17;4.47;;;3.60;;
22034;SDS011;11181;51.002;4.356;2023-04-01T13:52:00;5.67;;;5.00;;
22034;SDS011;11181;51.002;4.356;2023-04-01T13:57:51;6.77;;;4.50;;
22034;SDS011;11181;51.002;4.356;2023-04-01T14:00:38;7.30;;;4.37;;
22034;SDS011;11181;51.002;4.356;2023-04-01T14:03:36;4.37;;;3.97;;
22034;SDS011;11181;51.002;4.356;2023-04-01T14:06:21;5.60;;;4.30;;
22034;SDS011;11181;51.002;4.356;2023-04-01T14:09:00;5.87;;;4.53;;
22034;SDS011;11181;51.002;4.356;2023-04-01T14:11:56;6.43;;;4.00;;
22034;SDS011;11181;51.002;4.356;2023-04-01T14:14:33;4.50;;;3.63;;
22034;SDS011;11181;51.002;4.356;2023-04-01T14:17:17;4.10;;;3.00;;
22034;SDS011;11181;51.002;4.356;2023-04-01T14:20:00;4.27;;;3.87;;
22034;SDS011;11181;51.002;4.356;2023-04-01T14:22:42;3.70;;;3.33;;
22034;SDS011;11181;51.002;4.356;2023-04-01T14:25:27;5.80;;;3.60;;
22034;SDS011;11181;51.002;4.356;2023-04-01T14:28:04;5.27;;;3.67;;
22034;SDS011;11181;51.002;4.356;2023-04-01T14:30:41;4.77;;;3.87;;
22034;SDS011;11181;51.002;4.356;2023-04-01T14:33:27;4.50;;;3.10;;
22034;SDS011;11181;51.002;4.356;2023-04-01T14:36:09;5.07;;;3.40;;
22034;SDS011;11181;51.002;4.356;2023-04-01T14:38:48;4.00;;;2.70;;
22034;SDS011;11181;51.002;4.356;2023-04-01T14:41:31;4.60;;;3.30;;
22034;SDS011;11181;51.002;4.356;2023-04-01T14:44:29;4.17;;;3.03;;
22034;SDS011;11181;51.002;4.356;2023-04-01T14:47:36;3.57;;;3.20;;
22034;SDS011;11181;51.002;4.356;2023-04-01T14:50:11;4.37;;;2.70;;
22034;SDS011;11181;51.002;4.356;2023-04-01T14:52:42;6.17;;;3.07;;
22034;SDS011;11181;51.002;4.356;2023-04-01T14:55:18;6.27;;;4.33;;
22034;SDS011;11181;51.002;4.356;2023-04-01T14:57:59;5.70;;;4.23;;
22034;SDS011;11181;51.002;4.356;2023-04-01T15:00:40;6.03;;;3.80;;
22034;SDS011;11181;51.002;4.356;2023-04-01T15:03:25;5.47;;;3.60;;
22034;SDS011;11181;51.002;4.356;2023-04-01T15:06:00;5.10;;;3.77;;
22034;SDS011;11181;51.002;4.356;2023-04-01T15:08:55;4.63;;;3.30;;
22034;SDS011;11181;51.002;4.356;2023-04-01T15:11:36;3.20;;;2.90;;
22034;SDS011;11181;51.002;4.356;2023-04-01T15:14:24;7.10;;;3.07;;
22034;SDS011;11181;51.002;4.356;2023-04-01T15:17:18;5.17;;;3.07;;
22034;SDS011;11181;51.002;4.356;2023-04-01T15:20:13;3.23;;;2.53;;
22034;SDS011;11181;51.002;4.356;2023-04-01T15:22:54;3.83;;;2.60;;
22034;SDS011;11181;51.002;4.356;2023-04-01T15:25:35;2.60;;;2.23;;
22034;SDS011;11181;51.002;4.356;2023-04-01T15:28:14;2.47;;;1.90;;
22034;SDS011;11181;51.002;4.356;2023-04-01T15:30:53;2.27;;;1.60;;
22034;SDS011;11181;51.002;4.356;2023-04-01T15:33:29;3.93;;;2.40;;
22034;SDS011;11181;51.002;4.356;2023-04-01T15:36:13;2.43;;;1.60;;
22034;SDS011;11181;51.002;4.356;2023-04-01T15:38:51;2.07;;;1.27;;
22034;SDS011;11181;51.002;4.356;2023-04-01T15:41:26;2.10;;;1.63;;
22034;SDS011;11181;51.002;4.356;2023-04-01T15:44:01;3.77;;;1.40;;
22034;SDS011;11181;51.002;4.356;2023-04-01T15:46:39;1.80;;;1.43;;
22034;SDS011;11181;51.002;4.356;2023-04-01T15:49:20;1.30;;;1.20;;
22034;SDS011;11181;51.002;4.356;2023-04-01T15:51:57;1.77;;;1.40;;
22034;SDS011;11181;51.002;4.356;2023-04-01T15:57:28;1.30;;;1.20;;
22034;SDS011;11181;51.002;4.356;2023-04-01T16:00:05;2.00;;;1.30;;
22034;SDS011;11181;51.002;4.356;2023-04-01T16:02:42;3.77;;;1.60;;
22034;SDS011;11181;51.002;4.356;2023-04-01T16:05:25;3.33;;;2.70;;
22034;SDS011;11181;51.002;4.356;2023-04-01T16:08:10;4.67;;;2.80;;
22034;SDS011;11181;51.002;4.356;2023-04-01T16:11:03;2.90;;;2.50;;
22034;SDS011;11181;51.002;4.356;2023-04-01T16:13:46;3.20;;;2.90;;
22034;SDS011;11181;51.002;4.356;2023-04-01T16:16:23;2.70;;;2.33;;
22034;SDS011;11181;51.002;4.356;2023-04-01T16:19:01;3.53;;;2.90;;
22034;SDS011;11181;51.002;4.356;2023-04-01T16:21:43;2.70;;;2.33;;
22034;SDS011;11181;51.002;4.356;2023-04-01T16:24:15;3.37;;;2.60;;
22034;SDS011;11181;51.002;4.356;2023-04-01T16:26:50;3.97;;;2.47;;
22034;SDS011;11181;51.002;4.356;2023-04-01T16:29:24;4.17;;;2.60;;
22034;SDS011;11181;51.002;4.356;2023-04-01T16:31:59;4.63;;;3.53;;
22034;SDS011;11181;51.002;4.356;2023-04-01T16:34:43;4.67;;;3.93;;
22034;SDS011;11181;51.002;4.356;2023-04-01T16:37:15;3.60;;;3.30;;
22034;SDS011;11181;51.002;4.356;2023-04-01T16:39:47;3.50;;;3.20;;
22034;SDS011;11181;51.002;4.356;2023-04-01T16:42:24;3.17;;;2.33;;
22034;SDS011;11181;51.002;4.356;2023-04-01T16:45:00;3.77;;;2.93;;
22034;SDS011;11181;51.002;4.356;2023-04-01T16:47:45;3.80;;;3.20;;
22034;SDS011;11181;51.002;4.356;2023-04-01T16:50:19;4.93;;;4.00;;
22034;SDS011;11181;51.002;4.356;2023-04-01T16:52:53;4.97;;;3.97;;
22034;SDS011;11181;51.002;4.356;2023-04-01T16:55:33;4.00;;;3.33;;